Terminal Aerodrome Forecast
Issued by NWS Shreveport, LA

Home | Current Version | Previous Version | Text Only | Print | Product List | Glossary On
Versions: 1 2 3 4 5 6 7 8 9 10 11 12 13 14 15 16 17
000
FTUS44 KSHV 282300
TAFELD
TAF
KELD 282329Z 0100/0124 10007KT P6SM OVC100
     FM010700 03004KT P6SM SCT020 OVC040
     FM011300 03004KT 5SM -RA BR OVC015
     FM011800 05005KT 3SM RA BR OVC007=

USA.gov is the U.S. government's official web portal to all federal, state and local government web resources and services.